Time,TemperatureF,DewpointF,PressureIn,WindDirection,WindDirectionDegrees,WindSpeedMPH,WindSpeedGustMPH,Humidity,HourlyPrecipIn,Conditions,Clouds,dailyrainin,SolarRadiationWatts/m^2,SoftwareType,DateUTC
2013-08-20 00:11:00,58.3,54.0,29.73,West,279,2.0,4.0,85,0.00,,,0.00,0,weatherlink.com 1.10,2013-08-20 07:11:00,
2013-08-20 00:26:00,57.9,54.0,29.73,WSW,251,2.0,6.0,86,0.00,,,0.00,0,weatherlink.com 1.10,2013-08-20 07:26:00,
2013-08-20 00:41:00,57.7,54.0,29.75,WSW,245,2.0,4.0,87,0.00,,,0.00,0,weatherlink.com 1.10,2013-08-20 07:41:00,
2013-08-20 00:56:00,57.4,54.0,29.76,SSE,154,2.0,3.0,89,0.00,,,0.00,0,weatherlink.com 1.10,2013-08-20 07:56:00,
2013-08-20 01:11:00,57.0,54.0,29.75,West,269,1.0,5.0,89,0.00,,,0.00,0,weatherlink.com 1.10,2013-08-20 08:11:00,
2013-08-20 01:26:00,56.9,54.0,29.74,WSW,249,3.0,3.0,90,0.00,,,0.00,0,weatherlink.com 1.10,2013-08-20 08:26:00,
2013-08-20 01:41:00,56.8,54.0,29.74,SSW,213,2.0,5.0,90,0.00,,,0.00,0,weatherlink.com 1.10,2013-08-20 08:41:00,
2013-08-20 01:56:00,56.8,54.0,29.73,West,272,2.0,5.0,91,0.00,,,0.00,0,weatherlink.com 1.10,2013-08-20 08:56:00,
2013-08-20 02:11:00,56.6,54.0,29.74,South,184,1.0,5.0,91,0.00,,,0.00,0,weatherlink.com 1.10,2013-08-20 09:11:00,
2013-08-20 02:27:00,56.5,54.0,29.73,WSW,256,1.0,3.0,92,0.00,,,0.00,0,weatherlink.com 1.10,2013-08-20 09:27:00,
2013-08-20 02:42:00,56.6,54.0,29.73,WSW,243,2.0,4.0,91,0.00,,,0.00,0,weatherlink.com 1.10,2013-08-20 09:42:00,
2013-08-20 02:57:00,56.6,54.0,29.73,SW,234,2.0,5.0,91,0.00,,,0.00,0,weatherlink.com 1.10,2013-08-20 09:57:00,
2013-08-20 03:12:00,56.6,54.0,29.72,WSW,244,2.0,7.0,91,0.00,,,0.00,0,weatherlink.com 1.10,2013-08-20 10:12:00,
2013-08-20 03:27:00,56.6,54.0,29.72,SW,229,2.0,7.0,92,0.00,,,0.00,0,weatherlink.com 1.10,2013-08-20 10:27:00,
2013-08-20 03:42:00,56.5,54.0,29.72,WSW,246,1.0,7.0,92,0.00,,,0.00,0,weatherlink.com 1.10,2013-08-20 10:42:00,
2013-08-20 03:57:00,56.5,54.0,29.72,WNW,284,1.0,4.0,92,0.00,,,0.00,0,weatherlink.com 1.10,2013-08-20 10:57:00,
2013-08-20 04:12:00,56.4,55.0,29.71,WNW,289,1.0,4.0,93,0.00,,,0.00,0,weatherlink.com 1.10,2013-08-20 11:12:00,
2013-08-20 04:27:00,56.3,54.0,29.71,WNW,291,2.0,5.0,93,0.00,,,0.00,0,weatherlink.com 1.10,2013-08-20 11:27:00,
2013-08-20 04:42:00,56.2,54.0,29.71,WSW,257,2.0,6.0,93,0.00,,,0.00,0,weatherlink.com 1.10,2013-08-20 11:42:00,
2013-08-20 04:57:00,56.2,54.0,29.71,WSW,249,1.0,5.0,93,0.00,,,0.00,0,weatherlink.com 1.10,2013-08-20 11:57:00,
2013-08-20 05:12:00,56.2,54.0,29.71,West,260,0.0,5.0,93,0.00,,,0.00,0,weatherlink.com 1.10,2013-08-20 12:12:00,
2013-08-20 05:27:00,56.3,55.0,29.71,WSW,257,0.0,4.0,94,0.00,,,0.00,0,weatherlink.com 1.10,2013-08-20 12:27:00,
2013-08-20 05:42:00,56.3,55.0,29.71,West,261,0.0,3.0,94,0.00,,,0.00,0,weatherlink.com 1.10,2013-08-20 12:42:00,
2013-08-20 05:57:00,56.3,54.0,29.71,NW,306,0.0,2.0,93,0.00,,,0.00,0,weatherlink.com 1.10,2013-08-20 12:57:00,
2013-08-20 06:12:00,56.2,54.0,29.72,NW,315,0.0,2.0,93,0.00,,,0.00,0,weatherlink.com 1.10,2013-08-20 13:12:00,
2013-08-20 06:28:00,56.2,54.0,29.72,NW,315,1.0,2.0,93,0.00,,,0.00,0,weatherlink.com 1.10,2013-08-20 13:28:00,
2013-08-20 06:42:00,56.1,54.0,29.73,NW,315,0.0,1.0,93,0.00,,,0.00,7,weatherlink.com 1.10,2013-08-20 13:42:00,
2013-08-20 06:57:00,56.0,54.0,29.74,NW,315,0.0,0.0,94,0.00,,,0.00,18,weatherlink.com 1.10,2013-08-20 13:57:00,
2013-08-20 07:12:00,56.0,54.0,29.74,NW,315,0.0,0.0,94,0.00,,,0.00,32,weatherlink.com 1.10,2013-08-20 14:12:00,
2013-08-20 07:27:00,56.2,55.0,29.75,NW,315,1.0,1.0,94,0.00,,,0.00,30,weatherlink.com 1.10,2013-08-20 14:27:00,
2013-08-20 07:42:00,56.4,55.0,29.75,NW,314,1.0,3.0,94,0.00,,,0.00,30,weatherlink.com 1.10,2013-08-20 14:42:00,
2013-08-20 07:57:00,56.6,55.0,29.75,West,271,2.0,3.0,94,0.00,,,0.00,35,weatherlink.com 1.10,2013-08-20 14:57:00,
2013-08-20 08:12:00,57.2,55.0,29.75,West,281,0.0,3.0,93,0.00,,,0.00,179,weatherlink.com 1.10,2013-08-20 15:12:00,
2013-08-20 08:27:00,58.9,57.0,29.75,WSW,251,2.0,4.0,92,0.00,,,0.00,323,weatherlink.com 1.10,2013-08-20 15:27:00,
2013-08-20 08:42:00,61.2,57.0,29.76,WNW,284,3.0,5.0,87,0.00,,,0.00,346,weatherlink.com 1.10,2013-08-20 15:42:00,
2013-08-20 08:57:00,63.4,58.0,29.76,West,278,2.0,6.0,83,0.00,,,0.00,387,weatherlink.com 1.10,2013-08-20 15:57:00,
2013-08-20 09:13:00,64.1,58.0,29.76,WSW,247,4.0,5.0,81,0.00,,,0.00,408,weatherlink.com 1.10,2013-08-20 16:13:00,
2013-08-20 09:28:00,65.6,58.0,29.76,West,274,2.0,6.0,77,0.00,,,0.00,413,weatherlink.com 1.10,2013-08-20 16:28:00,
2013-08-20 09:43:00,66.7,59.0,29.76,WSW,258,2.0,6.0,75,0.00,,,0.00,559,weatherlink.com 1.10,2013-08-20 16:43:00,
2013-08-20 09:58:00,68.1,59.0,29.76,SW,234,1.0,7.0,72,0.00,,,0.00,295,weatherlink.com 1.10,2013-08-20 16:58:00,
2013-08-20 10:13:00,69.5,60.0,29.76,West,261,4.0,5.0,71,0.00,,,0.00,582,weatherlink.com 1.10,2013-08-20 17:13:00,
2013-08-20 10:28:00,70.4,59.0,29.76,West,259,1.0,5.0,68,0.00,,,0.00,563,weatherlink.com 1.10,2013-08-20 17:28:00,
2013-08-20 10:43:00,72.5,60.0,29.76,WSW,253,5.0,7.0,64,0.00,,,0.00,483,weatherlink.com 1.10,2013-08-20 17:43:00,
2013-08-20 10:58:00,73.1,60.0,29.77,West,261,3.0,5.0,63,0.00,,,0.00,737,weatherlink.com 1.10,2013-08-20 17:58:00,
2013-08-20 11:13:00,73.9,59.0,29.76,WSW,240,3.0,7.0,61,0.00,,,0.00,700,weatherlink.com 1.10,2013-08-20 18:13:00,
2013-08-20 11:28:00,75.1,60.0,29.77,SW,217,1.0,9.0,59,0.00,,,0.00,698,weatherlink.com 1.10,2013-08-20 18:28:00,
2013-08-20 11:43:00,75.5,60.0,29.77,WSW,246,3.0,8.0,58,0.00,,,0.00,712,weatherlink.com 1.10,2013-08-20 18:43:00,
2013-08-20 11:58:00,75.9,60.0,29.77,WNW,303,2.0,7.0,58,0.00,,,0.00,737,weatherlink.com 1.10,2013-08-20 18:58:00,
2013-08-20 12:13:00,77.2,60.0,29.77,West,260,2.0,5.0,56,0.00,,,0.00,780,weatherlink.com 1.10,2013-08-20 19:13:00,
2013-08-20 12:29:00,78.2,61.0,29.76,SW,225,3.0,7.0,55,0.00,,,0.00,754,weatherlink.com 1.10,2013-08-20 19:29:00,
2013-08-20 12:43:00,80.7,61.0,29.76,West,277,4.0,6.0,52,0.00,,,0.00,758,weatherlink.com 1.10,2013-08-20 19:43:00,
2013-08-20 12:58:00,80.9,61.0,29.76,West,276,4.0,7.0,51,0.00,,,0.00,756,weatherlink.com 1.10,2013-08-20 19:58:00,
2013-08-20 13:13:00,80.8,61.0,29.76,WNW,293,1.0,8.0,51,0.00,,,0.00,766,weatherlink.com 1.10,2013-08-20 20:13:00,
2013-08-20 13:28:00,82.0,61.0,29.75,West,265,6.0,9.0,49,0.00,,,0.00,798,weatherlink.com 1.10,2013-08-20 20:28:00,
2013-08-20 13:43:00,82.8,61.0,29.75,West,269,5.0,8.0,48,0.00,,,0.00,789,weatherlink.com 1.10,2013-08-20 20:43:00,
2013-08-20 13:58:00,83.0,61.0,29.74,WNW,290,3.0,9.0,47,0.00,,,0.00,796,weatherlink.com 1.10,2013-08-20 20:58:00,
2013-08-20 14:14:00,84.9,60.0,29.74,West,273,5.0,8.0,43,0.00,,,0.00,793,weatherlink.com 1.10,2013-08-20 21:14:00,
2013-08-20 14:29:00,84.5,60.0,29.74,West,276,1.0,10.0,44,0.00,,,0.00,777,weatherlink.com 1.10,2013-08-20 21:29:00,
2013-08-20 14:44:00,85.8,61.0,29.73,WSW,238,4.0,6.0,43,0.00,,,0.00,761,weatherlink.com 1.10,2013-08-20 21:44:00,
2013-08-20 14:59:00,85.8,61.0,29.73,SSW,198,5.0,8.0,43,0.00,,,0.00,740,weatherlink.com 1.10,2013-08-20 21:59:00,
2013-08-20 15:14:00,86.0,61.0,29.72,West,267,10.0,10.0,43,0.00,,,0.00,719,weatherlink.com 1.10,2013-08-20 22:14:00,
2013-08-20 15:29:00,86.3,61.0,29.72,WSW,237,3.0,10.0,42,0.00,,,0.00,689,weatherlink.com 1.10,2013-08-20 22:29:00,
2013-08-20 15:44:00,86.3,60.0,29.72,WNW,290,5.0,11.0,41,0.00,,,0.00,659,weatherlink.com 1.10,2013-08-20 22:44:00,
2013-08-20 15:59:00,85.3,60.0,29.71,WSW,244,5.0,10.0,42,0.00,,,0.00,624,weatherlink.com 1.10,2013-08-20 22:59:00,
2013-08-20 16:14:00,85.1,60.0,29.71,West,263,8.0,10.0,43,0.00,,,0.00,587,weatherlink.com 1.10,2013-08-20 23:14:00,
2013-08-20 16:29:00,85.3,60.0,29.70,NW,311,3.0,10.0,42,0.00,,,0.00,548,weatherlink.com 1.10,2013-08-20 23:29:00,
2013-08-20 16:44:00,85.8,59.0,29.70,West,263,5.0,9.0,41,0.00,,,0.00,512,weatherlink.com 1.10,2013-08-20 23:44:00,
2013-08-20 16:59:00,85.4,58.0,29.69,West,271,8.0,10.0,40,0.00,,,0.00,469,weatherlink.com 1.10,2013-08-20 23:59:00,
2013-08-20 17:14:00,84.3,57.0,29.69,West,271,7.0,12.0,39,0.00,,,0.00,424,weatherlink.com 1.10,2013-08-21 00:14:00,
2013-08-20 17:44:00,81.2,57.0,29.70,West,266,3.0,11.0,44,0.00,,,0.00,332,weatherlink.com 1.10,2013-08-21 00:44:00,
2013-08-20 17:59:00,78.8,57.0,29.70,SE,141,3.0,9.0,48,0.00,,,0.00,285,weatherlink.com 1.10,2013-08-21 00:59:00,
2013-08-20 18:14:00,76.0,57.0,29.71,SSE,148,1.0,9.0,52,0.00,,,0.00,239,weatherlink.com 1.10,2013-08-21 01:14:00,
2013-08-20 18:29:00,74.2,56.0,29.71,WSW,256,4.0,10.0,54,0.00,,,0.00,190,weatherlink.com 1.10,2013-08-21 01:29:00,
2013-08-20 18:44:00,71.3,57.0,29.72,WSW,258,7.0,10.0,60,0.00,,,0.00,146,weatherlink.com 1.10,2013-08-21 01:44:00,
2013-08-20 18:59:00,69.4,55.0,29.73,West,260,1.0,12.0,61,0.00,,,0.00,40,weatherlink.com 1.10,2013-08-21 01:59:00,
2013-08-20 19:14:00,67.7,55.0,29.73,NNW,335,3.0,9.0,63,0.00,,,0.00,35,weatherlink.com 1.10,2013-08-21 02:14:00,
2013-08-20 19:29:00,66.7,54.0,29.73,NW,324,4.0,6.0,65,0.00,,,0.00,26,weatherlink.com 1.10,2013-08-21 02:29:00,
2013-08-20 19:44:00,65.3,54.0,29.74,WSW,252,4.0,8.0,68,0.00,,,0.00,12,weatherlink.com 1.10,2013-08-21 02:44:00,
2013-08-20 19:59:00,64.2,55.0,29.75,WSW,253,2.0,7.0,71,0.00,,,0.00,0,weatherlink.com 1.10,2013-08-21 02:59:00,
2013-08-20 20:14:00,63.2,54.0,29.75,WSW,252,1.0,4.0,73,0.00,,,0.00,0,weatherlink.com 1.10,2013-08-21 03:14:00,
2013-08-20 20:29:00,62.3,55.0,29.76,SSE,160,1.0,3.0,77,0.00,,,0.00,0,weatherlink.com 1.10,2013-08-21 03:29:00,
2013-08-20 20:44:00,61.4,55.0,29.76,WSW,240,1.0,3.0,79,0.00,,,0.00,0,weatherlink.com 1.10,2013-08-21 03:44:00,
2013-08-20 20:59:00,60.6,55.0,29.76,WSW,254,0.0,4.0,81,0.00,,,0.00,0,weatherlink.com 1.10,2013-08-21 03:59:00,
2013-08-20 21:14:00,59.8,55.0,29.77,West,262,3.0,6.0,83,0.00,,,0.00,0,weatherlink.com 1.10,2013-08-21 04:14:00,
2013-08-20 21:29:00,59.1,55.0,29.77,WSW,252,2.0,5.0,85,0.00,,,0.00,0,weatherlink.com 1.10,2013-08-21 04:29:00,
2013-08-20 21:44:00,58.6,55.0,29.77,West,259,2.0,8.0,87,0.00,,,0.00,0,weatherlink.com 1.10,2013-08-21 04:44:00,
2013-08-20 21:59:00,58.1,55.0,29.77,SSW,192,1.0,6.0,88,0.00,,,0.00,0,weatherlink.com 1.10,2013-08-21 04:59:00,
2013-08-20 22:14:00,57.8,55.0,29.77,WSW,255,2.0,7.0,89,0.00,,,0.00,0,weatherlink.com 1.10,2013-08-21 05:14:00,
2013-08-20 22:29:00,57.5,54.0,29.77,WSW,252,1.0,5.0,89,0.00,,,0.00,0,weatherlink.com 1.10,2013-08-21 05:29:00,
2013-08-20 22:44:00,57.2,55.0,29.77,West,259,2.0,6.0,91,0.00,,,0.00,0,weatherlink.com 1.10,2013-08-21 05:44:00,
2013-08-20 22:59:00,57.0,55.0,29.77,WSW,248,2.0,6.0,91,0.00,,,0.00,0,weatherlink.com 1.10,2013-08-21 05:59:00,
2013-08-20 23:16:00,56.9,54.0,29.77,West,261,1.0,4.0,91,0.00,,,0.00,0,weatherlink.com 1.10,2013-08-21 06:16:00,
2013-08-20 23:29:00,56.7,55.0,29.77,WSW,241,1.0,5.0,92,0.00,,,0.00,0,weatherlink.com 1.10,2013-08-21 06:29:00,
2013-08-20 23:44:00,56.7,55.0,29.77,West,263,2.0,5.0,92,0.00,,,0.00,0,weatherlink.com 1.10,2013-08-21 06:44:00,
2013-08-20 23:59:00,56.9,55.0,29.77,SW,234,2.0,6.0,93,0.00,,,0.00,0,weatherlink.com 1.10,2013-08-21 06:59:00,